sensor_id;sensor_type;location;lat;lon;timestamp;P1;durP1;ratioP1;P2;durP2;ratioP2
23814;SDS011;12088;53.078;8.720;2023-06-22T00:02:16;58.53;;;56.17;;
23814;SDS011;12088;53.078;8.720;2023-06-22T00:04:42;21.80;;;20.75;;
23814;SDS011;12088;53.078;8.720;2023-06-22T00:07:08;46.03;;;43.90;;
23814;SDS011;12088;53.078;8.720;2023-06-22T00:09:33;61.03;;;58.35;;
23814;SDS011;12088;53.078;8.720;2023-06-22T00:11:59;92.63;;;88.55;;
23814;SDS011;12088;53.078;8.720;2023-06-22T00:14:24;67.05;;;64.20;;
23814;SDS011;12088;53.078;8.720;2023-06-22T00:16:50;66.50;;;63.67;;
23814;SDS011;12088;53.078;8.720;2023-06-22T00:19:22;43.38;;;41.50;;
23814;SDS011;12088;53.078;8.720;2023-06-22T00:21:50;46.90;;;44.93;;
23814;SDS011;12088;53.078;8.720;2023-06-22T00:24:19;100.65;;;96.70;;
23814;SDS011;12088;53.078;8.720;2023-06-22T00:26:46;64.20;;;61.65;;
23814;SDS011;12088;53.078;8.720;2023-06-22T00:29:12;34.42;;;32.97;;
23814;SDS011;12088;53.078;8.720;2023-06-22T00:31:38;29.90;;;28.70;;
23814;SDS011;12088;53.078;8.720;2023-06-22T00:34:03;65.13;;;62.53;;
23814;SDS011;12088;53.078;8.720;2023-06-22T00:36:31;48.60;;;46.53;;
23814;SDS011;12088;53.078;8.720;2023-06-22T00:38:57;34.25;;;32.85;;
23814;SDS011;12088;53.078;8.720;2023-06-22T00:41:22;57.22;;;54.75;;
23814;SDS011;12088;53.078;8.720;2023-06-22T00:43:48;143.50;;;137.63;;
23814;SDS011;12088;53.078;8.720;2023-06-22T00:46:13;157.82;;;151.82;;
23814;SDS011;12088;53.078;8.720;2023-06-22T00:48:39;91.47;;;87.85;;
23814;SDS011;12088;53.078;8.720;2023-06-22T00:51:06;51.60;;;49.55;;
23814;SDS011;12088;53.078;8.720;2023-06-22T00:53:32;28.98;;;27.77;;
23814;SDS011;12088;53.078;8.720;2023-06-22T00:56:00;26.65;;;25.50;;
23814;SDS011;12088;53.078;8.720;2023-06-22T00:58:25;48.97;;;47.05;;
23814;SDS011;12088;53.078;8.720;2023-06-22T01:00:51;70.15;;;67.30;;
23814;SDS011;12088;53.078;8.720;2023-06-22T01:03:16;24.48;;;23.48;;
23814;SDS011;12088;53.078;8.720;2023-06-22T01:05:42;20.88;;;20.05;;
23814;SDS011;12088;53.078;8.720;2023-06-22T01:08:14;18.92;;;18.20;;
23814;SDS011;12088;53.078;8.720;2023-06-22T01:10:50;29.45;;;28.25;;
23814;SDS011;12088;53.078;8.720;2023-06-22T01:16:00;55.20;;;52.95;;
23814;SDS011;12088;53.078;8.720;2023-06-22T01:18:30;20.08;;;19.23;;
23814;SDS011;12088;53.078;8.720;2023-06-22T01:20:58;49.92;;;47.85;;
23814;SDS011;12088;53.078;8.720;2023-06-22T01:26:08;15.82;;;15.23;;
23814;SDS011;12088;53.078;8.720;2023-06-22T01:28:45;19.10;;;18.17;;
23814;SDS011;12088;53.078;8.720;2023-06-22T01:31:23;21.73;;;20.87;;
23814;SDS011;12088;53.078;8.720;2023-06-22T01:33:51;36.60;;;35.03;;
23814;SDS011;12088;53.078;8.720;2023-06-22T01:36:20;57.03;;;54.77;;
23814;SDS011;12088;53.078;8.720;2023-06-22T01:38:47;56.83;;;54.47;;
23814;SDS011;12088;53.078;8.720;2023-06-22T01:41:14;88.33;;;84.70;;
23814;SDS011;12088;53.078;8.720;2023-06-22T01:43:41;38.60;;;36.83;;
23814;SDS011;12088;53.078;8.720;2023-06-22T01:46:08;21.43;;;20.30;;
23814;SDS011;12088;53.078;8.720;2023-06-22T01:48:33;52.50;;;50.23;;
23814;SDS011;12088;53.078;8.720;2023-06-22T01:50:59;28.60;;;27.33;;
23814;SDS011;12088;53.078;8.720;2023-06-22T01:53:25;16.77;;;16.07;;
23814;SDS011;12088;53.078;8.720;2023-06-22T01:55:51;13.03;;;12.43;;
23814;SDS011;12088;53.078;8.720;2023-06-22T01:58:16;19.67;;;18.87;;
23814;SDS011;12088;53.078;8.720;2023-06-22T02:00:44;37.07;;;35.43;;
23814;SDS011;12088;53.078;8.720;2023-06-22T02:03:18;27.70;;;26.20;;
23814;SDS011;12088;53.078;8.720;2023-06-22T02:05:48;29.07;;;27.87;;
23814;SDS011;12088;53.078;8.720;2023-06-22T02:08:23;32.87;;;31.10;;
23814;SDS011;12088;53.078;8.720;2023-06-22T02:10:52;17.03;;;16.33;;
23814;SDS011;12088;53.078;8.720;2023-06-22T02:13:19;17.57;;;16.87;;
23814;SDS011;12088;53.078;8.720;2023-06-22T02:15:45;30.00;;;28.73;;
23814;SDS011;12088;53.078;8.720;2023-06-22T02:18:12;27.43;;;26.30;;
23814;SDS011;12088;53.078;8.720;2023-06-22T02:20:38;18.97;;;18.17;;
23814;SDS011;12088;53.078;8.720;2023-06-22T02:23:05;50.00;;;47.70;;
23814;SDS011;12088;53.078;8.720;2023-06-22T02:25:32;36.90;;;35.33;;
23814;SDS011;12088;53.078;8.720;2023-06-22T02:27:58;57.23;;;54.93;;
23814;SDS011;12088;53.078;8.720;2023-06-22T02:30:23;30.73;;;29.20;;
23814;SDS011;12088;53.078;8.720;2023-06-22T02:32:48;15.10;;;14.43;;
23814;SDS011;12088;53.078;8.720;2023-06-22T02:35:14;24.57;;;23.57;;
23814;SDS011;12088;53.078;8.720;2023-06-22T02:37:40;45.23;;;43.30;;
23814;SDS011;12088;53.078;8.720;2023-06-22T02:40:08;32.03;;;30.70;;
23814;SDS011;12088;53.078;8.720;2023-06-22T02:42:35;43.70;;;41.63;;
23814;SDS011;12088;53.078;8.720;2023-06-22T02:45:04;28.70;;;27.50;;
23814;SDS011;12088;53.078;8.720;2023-06-22T02:47:30;43.57;;;41.80;;
23814;SDS011;12088;53.078;8.720;2023-06-22T02:49:55;50.30;;;48.30;;
23814;SDS011;12088;53.078;8.720;2023-06-22T02:52:21;86.87;;;83.47;;
23814;SDS011;12088;53.078;8.720;2023-06-22T02:54:46;47.53;;;45.27;;
23814;SDS011;12088;53.078;8.720;2023-06-22T02:57:12;39.30;;;37.63;;
23814;SDS011;12088;53.078;8.720;2023-06-22T02:59:38;29.50;;;28.20;;
23814;SDS011;12088;53.078;8.720;2023-06-22T03:02:05;42.10;;;40.37;;
23814;SDS011;12088;53.078;8.720;2023-06-22T03:04:31;20.53;;;19.63;;
23814;SDS011;12088;53.078;8.720;2023-06-22T03:06:56;44.53;;;42.60;;
23814;SDS011;12088;53.078;8.720;2023-06-22T03:09:25;36.10;;;34.47;;
23814;SDS011;12088;53.078;8.720;2023-06-22T03:11:52;25.00;;;23.97;;
23814;SDS011;12088;53.078;8.720;2023-06-22T03:14:18;30.83;;;29.63;;
23814;SDS011;12088;53.078;8.720;2023-06-22T03:16:44;32.63;;;31.20;;
23814;SDS011;12088;53.078;8.720;2023-06-22T03:19:09;26.63;;;25.53;;
23814;SDS011;12088;53.078;8.720;2023-06-22T03:21:36;34.70;;;33.27;;
23814;SDS011;12088;53.078;8.720;2023-06-22T03:24:03;33.27;;;31.80;;
23814;SDS011;12088;53.078;8.720;2023-06-22T03:26:29;26.63;;;25.17;;
23814;SDS011;12088;53.078;8.720;2023-06-22T03:28:55;26.40;;;25.37;;
23814;SDS011;12088;53.078;8.720;2023-06-22T03:31:20;16.40;;;15.73;;
23814;SDS011;12088;53.078;8.720;2023-06-22T03:33:47;16.47;;;15.77;;
23814;SDS011;12088;53.078;8.720;2023-06-22T03:36:14;17.70;;;16.90;;
23814;SDS011;12088;53.078;8.720;2023-06-22T03:38:43;8.27;;;7.93;;
23814;SDS011;12088;53.078;8.720;2023-06-22T03:41:13;39.37;;;37.63;;
23814;SDS011;12088;53.078;8.720;2023-06-22T03:43:38;165.60;;;159.07;;
23814;SDS011;12088;53.078;8.720;2023-06-22T03:46:04;353.10;;;338.97;;
23814;SDS011;12088;53.078;8.720;2023-06-22T03:48:30;238.67;;;229.47;;
23814;SDS011;12088;53.078;8.720;2023-06-22T03:50:55;48.93;;;46.93;;
23814;SDS011;12088;53.078;8.720;2023-06-22T03:53:21;42.53;;;40.57;;
23814;SDS011;12088;53.078;8.720;2023-06-22T03:55:50;32.20;;;30.70;;
23814;SDS011;12088;53.078;8.720;2023-06-22T03:58:17;103.20;;;99.10;;
23814;SDS011;12088;53.078;8.720;2023-06-22T04:00:44;182.30;;;175.40;;
23814;SDS011;12088;53.078;8.720;2023-06-22T04:03:16;75.57;;;72.37;;
23814;SDS011;12088;53.078;8.720;2023-06-22T04:05:43;25.00;;;23.95;;
23814;SDS011;12088;53.078;8.720;2023-06-22T04:08:09;29.40;;;28.20;;
23814;SDS011;12088;53.078;8.720;2023-06-22T04:10:35;24.47;;;23.40;;
23814;SDS011;12088;53.078;8.720;2023-06-22T04:13:00;34.10;;;32.53;;
23814;SDS011;12088;53.078;8.720;2023-06-22T04:15:26;20.15;;;19.15;;
23814;SDS011;12088;53.078;8.720;2023-06-22T04:17:51;17.40;;;16.38;;
23814;SDS011;12088;53.078;8.720;2023-06-22T04:20:17;44.53;;;42.53;;
23814;SDS011;12088;53.078;8.720;2023-06-22T04:22:43;43.47;;;41.70;;
23814;SDS011;12088;53.078;8.720;2023-06-22T04:25:08;67.67;;;64.77;;
23814;SDS011;12088;53.078;8.720;2023-06-22T04:27:34;42.80;;;41.00;;
23814;SDS011;12088;53.078;8.720;2023-06-22T04:30:07;35.03;;;33.58;;
23814;SDS011;12088;53.078;8.720;2023-06-22T04:32:33;45.95;;;43.90;;
23814;SDS011;12088;53.078;8.720;2023-06-22T04:35:01;31.13;;;29.70;;
23814;SDS011;12088;53.078;8.720;2023-06-22T04:37:27;46.55;;;44.25;;
23814;SDS011;12088;53.078;8.720;2023-06-22T04:39:52;20.70;;;19.77;;
23814;SDS011;12088;53.078;8.720;2023-06-22T04:42:18;32.55;;;31.20;;
23814;SDS011;12088;53.078;8.720;2023-06-22T04:44:44;51.22;;;48.90;;
23814;SDS011;12088;53.078;8.720;2023-06-22T04:47:09;44.55;;;42.38;;
23814;SDS011;12088;53.078;8.720;2023-06-22T04:49:35;66.97;;;64.05;;
23814;SDS011;12088;53.078;8.720;2023-06-22T04:52:08;54.28;;;51.80;;
23814;SDS011;12088;53.078;8.720;2023-06-22T04:54:36;84.47;;;81.07;;
23814;SDS011;12088;53.078;8.720;2023-06-22T04:57:04;93.88;;;90.00;;
23814;SDS011;12088;53.078;8.720;2023-06-22T04:59:36;68.78;;;65.90;;
23814;SDS011;12088;53.078;8.720;2023-06-22T05:02:04;103.43;;;99.22;;
23814;SDS011;12088;53.078;8.720;2023-06-22T05:04:31;104.03;;;99.75;;
23814;SDS011;12088;53.078;8.720;2023-06-22T05:06:57;43.97;;;41.97;;
23814;SDS011;12088;53.078;8.720;2023-06-22T05:09:23;43.25;;;41.15;;
23814;SDS011;12088;53.078;8.720;2023-06-22T05:11:50;96.53;;;92.07;;
23814;SDS011;12088;53.078;8.720;2023-06-22T05:14:16;88.75;;;85.10;;
23814;SDS011;12088;53.078;8.720;2023-06-22T05:16:42;196.25;;;187.85;;
23814;SDS011;12088;53.078;8.720;2023-06-22T05:19:08;198.13;;;189.23;;
23814;SDS011;12088;53.078;8.720;2023-06-22T05:21:34;173.40;;;163.73;;
23814;SDS011;12088;53.078;8.720;2023-06-22T05:23:59;110.75;;;102.13;;
23814;SDS011;12088;53.078;8.720;2023-06-22T05:26:27;170.63;;;93.75;;
23814;SDS011;12088;53.078;8.720;2023-06-22T05:28:55;76.15;;;70.95;;
23814;SDS011;12088;53.078;8.720;2023-06-22T05:31:21;55.28;;;49.95;;
23814;SDS011;12088;53.078;8.720;2023-06-22T05:33:47;57.20;;;52.58;;
23814;SDS011;12088;53.078;8.720;2023-06-22T05:36:14;65.80;;;60.90;;
23814;SDS011;12088;53.078;8.720;2023-06-22T05:38:40;70.57;;;65.88;;
23814;SDS011;12088;53.078;8.720;2023-06-22T05:41:06;76.82;;;71.47;;
23814;SDS011;12088;53.078;8.720;2023-06-22T05:43:32;72.18;;;66.78;;
23814;SDS011;12088;53.078;8.720;2023-06-22T05:45:59;71.32;;;66.50;;
23814;SDS011;12088;53.078;8.720;2023-06-22T05:48:25;59.95;;;55.35;;
23814;SDS011;12088;53.078;8.720;2023-06-22T05:50:51;61.92;;;57.65;;
23814;SDS011;12088;53.078;8.720;2023-06-22T05:53:17;62.53;;;58.28;;
23814;SDS011;12088;53.078;8.720;2023-06-22T05:55:42;49.83;;;45.97;;
23814;SDS011;12088;53.078;8.720;2023-06-22T05:58:08;60.50;;;56.03;;
23814;SDS011;12088;53.078;8.720;2023-06-22T06:00:34;59.38;;;55.63;;
23814;SDS011;12088;53.078;8.720;2023-06-22T06:03:00;48.53;;;44.97;;
23814;SDS011;12088;53.078;8.720;2023-06-22T06:05:31;53.42;;;49.85;;
23814;SDS011;12088;53.078;8.720;2023-06-22T06:07:58;48.22;;;44.88;;
23814;SDS011;12088;53.078;8.720;2023-06-22T06:10:29;53.55;;;49.22;;
23814;SDS011;12088;53.078;8.720;2023-06-22T06:12:55;49.60;;;46.20;;
23814;SDS011;12088;53.078;8.720;2023-06-22T06:15:21;64.18;;;59.92;;
23814;SDS011;12088;53.078;8.720;2023-06-22T06:17:51;45.58;;;42.33;;
23814;SDS011;12088;53.078;8.720;2023-06-22T06:20:21;54.05;;;50.35;;
23814;SDS011;12088;53.078;8.720;2023-06-22T06:22:48;60.67;;;56.67;;
23814;SDS011;12088;53.078;8.720;2023-06-22T06:25:14;63.30;;;59.45;;
23814;SDS011;12088;53.078;8.720;2023-06-22T06:27:41;71.95;;;67.43;;
23814;SDS011;12088;53.078;8.720;2023-06-22T06:30:14;71.68;;;67.57;;
23814;SDS011;12088;53.078;8.720;2023-06-22T06:32:41;67.85;;;63.20;;
23814;SDS011;12088;53.078;8.720;2023-06-22T06:35:08;63.25;;;59.38;;
23814;SDS011;12088;53.078;8.720;2023-06-22T06:37:38;64.93;;;60.75;;
23814;SDS011;12088;53.078;8.720;2023-06-22T06:40:06;67.97;;;63.40;;
23814;SDS011;12088;53.078;8.720;2023-06-22T06:42:39;79.55;;;74.43;;
23814;SDS011;12088;53.078;8.720;2023-06-22T06:45:07;61.22;;;57.28;;
23814;SDS011;12088;53.078;8.720;2023-06-22T06:47:33;55.05;;;50.70;;
23814;SDS011;12088;53.078;8.720;2023-06-22T06:49:58;53.63;;;50.22;;
23814;SDS011;12088;53.078;8.720;2023-06-22T06:52:24;59.70;;;55.58;;
23814;SDS011;12088;53.078;8.720;2023-06-22T06:54:50;53.08;;;49.45;;
23814;SDS011;12088;53.078;8.720;2023-06-22T06:57:17;60.40;;;56.65;;
23814;SDS011;12088;53.078;8.720;2023-06-22T06:59:43;63.03;;;59.00;;
23814;SDS011;12088;53.078;8.720;2023-06-22T07:02:08;66.57;;;62.17;;
23814;SDS011;12088;53.078;8.720;2023-06-22T07:04:34;57.53;;;53.92;;
23814;SDS011;12088;53.078;8.720;2023-06-22T07:07:00;72.68;;;68.05;;
23814;SDS011;12088;53.078;8.720;2023-06-22T07:09:27;83.63;;;78.93;;
23814;SDS011;12088;53.078;8.720;2023-06-22T07:11:52;76.22;;;72.05;;
23814;SDS011;12088;53.078;8.720;2023-06-22T07:14:18;93.78;;;88.40;;
23814;SDS011;12088;53.078;8.720;2023-06-22T07:16:43;76.15;;;71.57;;
23814;SDS011;12088;53.078;8.720;2023-06-22T07:19:10;71.75;;;67.70;;
23814;SDS011;12088;53.078;8.720;2023-06-22T07:21:37;66.97;;;63.00;;
23814;SDS011;12088;53.078;8.720;2023-06-22T07:24:04;65.93;;;61.88;;
23814;SDS011;12088;53.078;8.720;2023-06-22T07:26:30;67.45;;;63.53;;
23814;SDS011;12088;53.078;8.720;2023-06-22T07:28:56;88.45;;;83.65;;
23814;SDS011;12088;53.078;8.720;2023-06-22T07:31:23;95.95;;;90.82;;
23814;SDS011;12088;53.078;8.720;2023-06-22T07:33:49;103.85;;;98.25;;
23814;SDS011;12088;53.078;8.720;2023-06-22T07:36:16;116.47;;;110.30;;
23814;SDS011;12088;53.078;8.720;2023-06-22T07:38:42;107.72;;;101.75;;
23814;SDS011;12088;53.078;8.720;2023-06-22T07:41:07;113.18;;;107.20;;
23814;SDS011;12088;53.078;8.720;2023-06-22T07:43:33;116.93;;;111.22;;
23814;SDS011;12088;53.078;8.720;2023-06-22T07:46:01;138.80;;;131.73;;
23814;SDS011;12088;53.078;8.720;2023-06-22T07:48:30;129.32;;;122.78;;
23814;SDS011;12088;53.078;8.720;2023-06-22T07:50:55;137.32;;;130.65;;
23814;SDS011;12088;53.078;8.720;2023-06-22T07:53:21;145.63;;;139.00;;
23814;SDS011;12088;53.078;8.720;2023-06-22T07:55:48;143.52;;;136.75;;
23814;SDS011;12088;53.078;8.720;2023-06-22T07:58:13;200.57;;;191.02;;
23814;SDS011;12088;53.078;8.720;2023-06-22T08:00:40;177.00;;;168.48;;
23814;SDS011;12088;53.078;8.720;2023-06-22T08:03:06;158.68;;;151.15;;
23814;SDS011;12088;53.078;8.720;2023-06-22T08:05:32;171.65;;;163.52;;
23814;SDS011;12088;53.078;8.720;2023-06-22T08:07:57;193.70;;;183.95;;
23814;SDS011;12088;53.078;8.720;2023-06-22T08:10:23;167.90;;;159.70;;
23814;SDS011;12088;53.078;8.720;2023-06-22T08:12:48;177.40;;;169.00;;
23814;SDS011;12088;53.078;8.720;2023-06-22T08:15:14;254.70;;;242.02;;
23814;SDS011;12088;53.078;8.720;2023-06-22T08:17:39;215.80;;;205.43;;
23814;SDS011;12088;53.078;8.720;2023-06-22T08:20:06;197.35;;;188.18;;
23814;SDS011;12088;53.078;8.720;2023-06-22T08:22:34;158.43;;;151.27;;
23814;SDS011;12088;53.078;8.720;2023-06-22T08:25:01;145.68;;;138.95;;
23814;SDS011;12088;53.078;8.720;2023-06-22T08:27:28;152.75;;;145.35;;
23814;SDS011;12088;53.078;8.720;2023-06-22T08:29:56;200.15;;;190.68;;
23814;SDS011;12088;53.078;8.720;2023-06-22T08:32:23;187.93;;;178.98;;
23814;SDS011;12088;53.078;8.720;2023-06-22T08:34:53;153.30;;;146.20;;
23814;SDS011;12088;53.078;8.720;2023-06-22T08:37:19;297.63;;;283.13;;
23814;SDS011;12088;53.078;8.720;2023-06-22T08:39:45;175.98;;;167.82;;
23814;SDS011;12088;53.078;8.720;2023-06-22T08:42:11;198.80;;;189.32;;
23814;SDS011;12088;53.078;8.720;2023-06-22T08:44:36;226.98;;;216.00;;
23814;SDS011;12088;53.078;8.720;2023-06-22T08:47:02;258.05;;;245.60;;
23814;SDS011;12088;53.078;8.720;2023-06-22T08:49:28;246.45;;;234.15;;
23814;SDS011;12088;53.078;8.720;2023-06-22T08:51:54;148.25;;;141.40;;
23814;SDS011;12088;53.078;8.720;2023-06-22T08:54:21;173.07;;;164.98;;
23814;SDS011;12088;53.078;8.720;2023-06-22T08:56:47;129.30;;;123.50;;
23814;SDS011;12088;53.078;8.720;2023-06-22T08:59:12;128.00;;;122.15;;
23814;SDS011;12088;53.078;8.720;2023-06-22T09:01:38;128.77;;;123.13;;
23814;SDS011;12088;53.078;8.720;2023-06-22T09:04:03;105.78;;;101.00;;
23814;SDS011;12088;53.078;8.720;2023-06-22T09:06:31;85.50;;;81.32;;
23814;SDS011;12088;53.078;8.720;2023-06-22T09:08:56;56.25;;;53.60;;
23814;SDS011;12088;53.078;8.720;2023-06-22T09:11:24;46.85;;;44.30;;
23814;SDS011;12088;53.078;8.720;2023-06-22T09:13:50;55.60;;;52.95;;
23814;SDS011;12088;53.078;8.720;2023-06-22T09:16:15;45.40;;;43.25;;
23814;SDS011;12088;53.078;8.720;2023-06-22T09:18:41;44.40;;;42.20;;
23814;SDS011;12088;53.078;8.720;2023-06-22T09:21:06;40.22;;;38.38;;
23814;SDS011;12088;53.078;8.720;2023-06-22T09:23:32;41.58;;;39.33;;
23814;SDS011;12088;53.078;8.720;2023-06-22T09:25:57;34.83;;;33.05;;
23814;SDS011;12088;53.078;8.720;2023-06-22T09:28:23;35.47;;;33.70;;
23814;SDS011;12088;53.078;8.720;2023-06-22T09:30:48;28.92;;;27.27;;
23814;SDS011;12088;53.078;8.720;2023-06-22T09:33:14;31.35;;;29.70;;
23814;SDS011;12088;53.078;8.720;2023-06-22T09:35:39;31.55;;;30.05;;
23814;SDS011;12088;53.078;8.720;2023-06-22T09:38:05;28.80;;;27.20;;
23814;SDS011;12088;53.078;8.720;2023-06-22T09:40:30;27.92;;;26.45;;
23814;SDS011;12088;53.078;8.720;2023-06-22T09:43:00;41.50;;;39.63;;
23814;SDS011;12088;53.078;8.720;2023-06-22T09:45:25;39.83;;;37.92;;
23814;SDS011;12088;53.078;8.720;2023-06-22T09:47:51;32.35;;;30.67;;
23814;SDS011;12088;53.078;8.720;2023-06-22T09:50:16;29.20;;;27.60;;
23814;SDS011;12088;53.078;8.720;2023-06-22T09:52:42;31.98;;;30.40;;
23814;SDS011;12088;53.078;8.720;2023-06-22T09:55:09;27.80;;;26.55;;
23814;SDS011;12088;53.078;8.720;2023-06-22T09:57:35;38.35;;;36.47;;
23814;SDS011;12088;53.078;8.720;2023-06-22T10:00:00;30.27;;;28.67;;
23814;SDS011;12088;53.078;8.720;2023-06-22T10:02:26;33.83;;;32.25;;
23814;SDS011;12088;53.078;8.720;2023-06-22T10:04:51;29.17;;;27.67;;
23814;SDS011;12088;53.078;8.720;2023-06-22T10:07:17;28.65;;;27.20;;
23814;SDS011;12088;53.078;8.720;2023-06-22T10:09:42;33.92;;;32.30;;
23814;SDS011;12088;53.078;8.720;2023-06-22T10:12:08;30.67;;;29.17;;
23814;SDS011;12088;53.078;8.720;2023-06-22T10:14:33;37.13;;;35.35;;
23814;SDS011;12088;53.078;8.720;2023-06-22T10:16:59;38.95;;;37.10;;
23814;SDS011;12088;53.078;8.720;2023-06-22T10:19:25;29.52;;;27.92;;
23814;SDS011;12088;53.078;8.720;2023-06-22T10:21:50;32.50;;;30.75;;
23814;SDS011;12088;53.078;8.720;2023-06-22T10:24:16;32.45;;;30.80;;
23814;SDS011;12088;53.078;8.720;2023-06-22T10:26:42;33.53;;;31.92;;
23814;SDS011;12088;53.078;8.720;2023-06-22T10:29:07;47.70;;;45.53;;
23814;SDS011;12088;53.078;8.720;2023-06-22T10:31:33;42.08;;;39.90;;
23814;SDS011;12088;53.078;8.720;2023-06-22T10:33:58;37.10;;;35.38;;
23814;SDS011;12088;53.078;8.720;2023-06-22T10:36:24;39.70;;;37.83;;
23814;SDS011;12088;53.078;8.720;2023-06-22T10:38:49;35.92;;;33.97;;
23814;SDS011;12088;53.078;8.720;2023-06-22T10:41:15;28.00;;;26.55;;
23814;SDS011;12088;53.078;8.720;2023-06-22T10:43:41;32.92;;;31.23;;
23814;SDS011;12088;53.078;8.720;2023-06-22T10:46:07;23.90;;;22.58;;
23814;SDS011;12088;53.078;8.720;2023-06-22T10:48:32;30.85;;;29.33;;
23814;SDS011;12088;53.078;8.720;2023-06-22T10:50:58;39.92;;;38.08;;
23814;SDS011;12088;53.078;8.720;2023-06-22T10:53:24;30.00;;;28.48;;
23814;SDS011;12088;53.078;8.720;2023-06-22T10:55:49;24.60;;;23.33;;
23814;SDS011;12088;53.078;8.720;2023-06-22T10:58:15;24.85;;;23.50;;
23814;SDS011;12088;53.078;8.720;2023-06-22T11:00:42;27.08;;;25.67;;
23814;SDS011;12088;53.078;8.720;2023-06-22T11:03:08;32.53;;;30.98;;
23814;SDS011;12088;53.078;8.720;2023-06-22T11:05:33;37.33;;;35.40;;
23814;SDS011;12088;53.078;8.720;2023-06-22T11:07:59;25.52;;;24.13;;
23814;SDS011;12088;53.078;8.720;2023-06-22T11:10:24;25.77;;;24.52;;
23814;SDS011;12088;53.078;8.720;2023-06-22T11:12:51;52.13;;;49.55;;
23814;SDS011;12088;53.078;8.720;2023-06-22T11:15:16;29.10;;;27.75;;
23814;SDS011;12088;53.078;8.720;2023-06-22T11:17:42;29.05;;;27.50;;
23814;SDS011;12088;53.078;8.720;2023-06-22T11:20:07;28.27;;;26.98;;
23814;SDS011;12088;53.078;8.720;2023-06-22T11:22:39;23.00;;;21.80;;
23814;SDS011;12088;53.078;8.720;2023-06-22T11:25:06;27.40;;;26.00;;
23814;SDS011;12088;53.078;8.720;2023-06-22T11:27:32;30.85;;;29.40;;
23814;SDS011;12088;53.078;8.720;2023-06-22T11:29:58;27.50;;;26.13;;
23814;SDS011;12088;53.078;8.720;2023-06-22T11:32:23;29.08;;;27.70;;
23814;SDS011;12088;53.078;8.720;2023-06-22T11:34:49;53.67;;;51.22;;
23814;SDS011;12088;53.078;8.720;2023-06-22T11:37:14;47.50;;;45.17;;
23814;SDS011;12088;53.078;8.720;2023-06-22T11:39:40;42.92;;;40.83;;
23814;SDS011;12088;53.078;8.720;2023-06-22T11:42:06;40.75;;;38.88;;
23814;SDS011;12088;53.078;8.720;2023-06-22T11:44:33;54.83;;;52.38;;
23814;SDS011;12088;53.078;8.720;2023-06-22T11:46:58;45.30;;;43.17;;
23814;SDS011;12088;53.078;8.720;2023-06-22T11:49:25;34.65;;;32.88;;
23814;SDS011;12088;53.078;8.720;2023-06-22T11:51:51;32.15;;;30.63;;
23814;SDS011;12088;53.078;8.720;2023-06-22T11:54:17;25.38;;;24.17;;
23814;SDS011;12088;53.078;8.720;2023-06-22T11:56:42;31.85;;;30.35;;
23814;SDS011;12088;53.078;8.720;2023-06-22T11:59:08;30.70;;;29.20;;
23814;SDS011;12088;53.078;8.720;2023-06-22T12:01:33;32.05;;;30.55;;
23814;SDS011;12088;53.078;8.720;2023-06-22T12:03:59;27.63;;;26.23;;
23814;SDS011;12088;53.078;8.720;2023-06-22T12:06:24;49.83;;;47.55;;
23814;SDS011;12088;53.078;8.720;2023-06-22T12:08:50;30.17;;;28.50;;
23814;SDS011;12088;53.078;8.720;2023-06-22T12:11:15;25.10;;;23.67;;
23814;SDS011;12088;53.078;8.720;2023-06-22T12:13:41;23.15;;;21.98;;
23814;SDS011;12088;53.078;8.720;2023-06-22T12:16:06;27.33;;;26.02;;
23814;SDS011;12088;53.078;8.720;2023-06-22T12:18:32;27.85;;;26.55;;
23814;SDS011;12088;53.078;8.720;2023-06-22T12:20:57;76.00;;;72.75;;
23814;SDS011;12088;53.078;8.720;2023-06-22T12:23:23;31.95;;;30.20;;
23814;SDS011;12088;53.078;8.720;2023-06-22T12:25:48;32.58;;;30.98;;
23814;SDS011;12088;53.078;8.720;2023-06-22T12:28:14;34.28;;;32.47;;
23814;SDS011;12088;53.078;8.720;2023-06-22T12:30:39;32.25;;;30.70;;
23814;SDS011;12088;53.078;8.720;2023-06-22T12:33:05;37.78;;;36.05;;
23814;SDS011;12088;53.078;8.720;2023-06-22T12:35:30;53.03;;;50.35;;
23814;SDS011;12088;53.078;8.720;2023-06-22T12:37:57;23.85;;;22.73;;
23814;SDS011;12088;53.078;8.720;2023-06-22T12:40:23;28.80;;;27.48;;
23814;SDS011;12088;53.078;8.720;2023-06-22T12:42:49;77.78;;;74.20;;
23814;SDS011;12088;53.078;8.720;2023-06-22T12:45:14;103.32;;;98.72;;
23814;SDS011;12088;53.078;8.720;2023-06-22T12:47:40;60.42;;;57.67;;
23814;SDS011;12088;53.078;8.720;2023-06-22T12:50:05;135.65;;;129.13;;
23814;SDS011;12088;53.078;8.720;2023-06-22T12:52:31;89.22;;;85.18;;
23814;SDS011;12088;53.078;8.720;2023-06-22T12:54:57;189.23;;;180.68;;
23814;SDS011;12088;53.078;8.720;2023-06-22T12:57:22;168.07;;;160.48;;
23814;SDS011;12088;53.078;8.720;2023-06-22T12:59:48;116.88;;;111.88;;
23814;SDS011;12088;53.078;8.720;2023-06-22T13:02:14;109.75;;;104.88;;
23814;SDS011;12088;53.078;8.720;2023-06-22T13:04:39;109.05;;;104.07;;
23814;SDS011;12088;53.078;8.720;2023-06-22T13:07:05;164.05;;;156.80;;
23814;SDS011;12088;53.078;8.720;2023-06-22T13:09:30;149.77;;;143.18;;
23814;SDS011;12088;53.078;8.720;2023-06-22T13:11:56;172.18;;;164.60;;
23814;SDS011;12088;53.078;8.720;2023-06-22T13:14:21;187.65;;;179.18;;
23814;SDS011;12088;53.078;8.720;2023-06-22T13:16:47;174.35;;;166.48;;
23814;SDS011;12088;53.078;8.720;2023-06-22T13:19:12;186.77;;;178.68;;
23814;SDS011;12088;53.078;8.720;2023-06-22T13:21:38;131.48;;;125.32;;
23814;SDS011;12088;53.078;8.720;2023-06-22T13:24:03;150.95;;;143.95;;
23814;SDS011;12088;53.078;8.720;2023-06-22T13:26:31;165.48;;;158.10;;
23814;SDS011;12088;53.078;8.720;2023-06-22T13:28:56;120.88;;;115.53;;
23814;SDS011;12088;53.078;8.720;2023-06-22T13:31:22;113.03;;;107.95;;
23814;SDS011;12088;53.078;8.720;2023-06-22T13:33:47;107.88;;;103.18;;
23814;SDS011;12088;53.078;8.720;2023-06-22T13:36:13;126.25;;;120.70;;
23814;SDS011;12088;53.078;8.720;2023-06-22T13:38:39;148.63;;;142.15;;
23814;SDS011;12088;53.078;8.720;2023-06-22T13:41:05;164.25;;;157.23;;
23814;SDS011;12088;53.078;8.720;2023-06-22T13:43:31;169.07;;;161.57;;
23814;SDS011;12088;53.078;8.720;2023-06-22T13:45:57;208.73;;;199.27;;
23814;SDS011;12088;53.078;8.720;2023-06-22T13:48:22;198.02;;;188.88;;
23814;SDS011;12088;53.078;8.720;2023-06-22T13:50:50;252.82;;;241.10;;
23814;SDS011;12088;53.078;8.720;2023-06-22T13:53:16;217.30;;;207.50;;
23814;SDS011;12088;53.078;8.720;2023-06-22T13:55:42;198.27;;;189.13;;
23814;SDS011;12088;53.078;8.720;2023-06-22T13:58:07;184.05;;;175.55;;
23814;SDS011;12088;53.078;8.720;2023-06-22T14:00:33;340.40;;;323.23;;
23814;SDS011;12088;53.078;8.720;2023-06-22T14:02:58;353.25;;;335.67;;
23814;SDS011;12088;53.078;8.720;2023-06-22T14:05:24;329.65;;;313.08;;
23814;SDS011;12088;53.078;8.720;2023-06-22T14:07:49;257.98;;;245.60;;
23814;SDS011;12088;53.078;8.720;2023-06-22T14:10:15;287.98;;;273.83;;
23814;SDS011;12088;53.078;8.720;2023-06-22T14:12:40;340.80;;;323.10;;
23814;SDS011;12088;53.078;8.720;2023-06-22T14:15:06;303.40;;;287.77;;
23814;SDS011;12088;53.078;8.720;2023-06-22T14:17:31;373.88;;;354.27;;